Olenegorsk, Russia
Current Conditions -  °F | °C
As of 12:30 AM on Wednesday 22 Oct 2014 (Local Time) from ULMM Reporting Station
Scattered Clouds Scattered Clouds  
Wind Chill: -10°   Ceiling: Unl
Heat Index:   Visibility: 6mi
Dew Point: -4°   Wind: 4mph
Humidity: 85%   Direction: NA
Pressure: 30.36"   Gusts: NA
Location:  68.15°N, 33.3°E
Report Text: ULMM 212130Z VRB02MPS 9999 SCT002 M18/M20 Q1028 TEMPO 0200 FZFGVV001 RMK QBB070 OBST OBSC QFE763 31390150
Loading
Personal Weather Stations






























Interactive Weather Map
Tropical Storm Tracking
New forecast layout! Learn more

10-Day Weather Forecast

Advertisements
Track Severe Weather on mobile